Terminal Aerodrome Forecast
Issued by NWS Riverton, WY

Home | Current Version | Previous Version | Text Only | Print | Product List | Glossary On
Versions: 1 2 3 4 5 6 7 8 9 10 11 12 13 14 15 16 17 18 19 20 21 22
000
FTUS45 KRIW 262320
TAFRIW
TAF
KRIW 262320Z 2700/2724 28011KT P6SM VCSH SCT050 BKN080
     FM270800 31013G19KT P6SM VCSH BKN050
     FM271800 33017G27KT 5SM -RA OVC025=

USA.gov is the U.S. government's official web portal to all federal, state and local government web resources and services.